Finike, Turkey
Current Conditions -  °F | °C
As of 3:50 AM on Sunday 21 Dec 2014 (Local Time) from LTAI Reporting Station
Clear Clear  
Wind Chill:   Ceiling: Unl
Heat Index:   Visibility: 6mi
Dew Point:   Wind: 5mph
Humidity: 81%   Direction: 350°N
Pressure: 30.12"   Gusts: NA
Location:  36.3°N, 30.14°E
Report Text: LTAI 210050Z 35004KT CAVOK 06/03 Q1020 NOSIG
Loading
Personal Weather Stations






























Interactive Weather Map New forecast layout! Learn more

10-Day Weather Forecast

Advertisements
Track Severe Weather on mobile